sensor_id;sensor_type;location;lat;lon;timestamp;P1;durP1;ratioP1;P2;durP2;ratioP2
781;SDS011;374;52.568;13.402;2023-03-23T00:02:24;3.87;;;3.57;;
781;SDS011;374;52.568;13.402;2023-03-23T00:04:50;3.70;;;3.40;;
781;SDS011;374;52.568;13.402;2023-03-23T00:07:16;3.90;;;3.13;;
781;SDS011;374;52.568;13.402;2023-03-23T00:09:55;3.30;;;3.10;;
781;SDS011;374;52.568;13.402;2023-03-23T00:12:21;3.37;;;3.07;;
781;SDS011;374;52.568;13.402;2023-03-23T00:14:58;5.63;;;3.30;;
781;SDS011;374;52.568;13.402;2023-03-23T00:17:28;4.03;;;3.03;;
781;SDS011;374;52.568;13.402;2023-03-23T00:19:54;3.17;;;2.97;;
781;SDS011;374;52.568;13.402;2023-03-23T00:22:25;4.10;;;3.10;;
781;SDS011;374;52.568;13.402;2023-03-23T00:24:54;4.20;;;3.80;;
781;SDS011;374;52.568;13.402;2023-03-23T00:27:21;5.50;;;3.93;;
781;SDS011;374;52.568;13.402;2023-03-23T00:29:47;3.97;;;3.67;;
781;SDS011;374;52.568;13.402;2023-03-23T00:32:17;3.93;;;3.50;;
781;SDS011;374;52.568;13.402;2023-03-23T00:34:45;3.90;;;2.97;;
781;SDS011;374;52.568;13.402;2023-03-23T00:37:14;5.10;;;3.20;;
781;SDS011;374;52.568;13.402;2023-03-23T00:39:43;3.43;;;3.17;;
781;SDS011;374;52.568;13.402;2023-03-23T00:42:11;5.30;;;3.90;;
781;SDS011;374;52.568;13.402;2023-03-23T00:44:41;3.77;;;3.10;;
781;SDS011;374;52.568;13.402;2023-03-23T00:47:08;4.13;;;3.73;;
781;SDS011;374;52.568;13.402;2023-03-23T00:49:35;3.67;;;3.23;;
781;SDS011;374;52.568;13.402;2023-03-23T00:52:02;3.47;;;3.17;;
781;SDS011;374;52.568;13.402;2023-03-23T00:54:29;4.03;;;3.53;;
781;SDS011;374;52.568;13.402;2023-03-23T00:56:55;5.57;;;3.83;;
781;SDS011;374;52.568;13.402;2023-03-23T00:59:21;4.23;;;3.90;;
781;SDS011;374;52.568;13.402;2023-03-23T01:01:47;4.60;;;3.40;;
781;SDS011;374;52.568;13.402;2023-03-23T01:04:13;3.40;;;3.10;;
781;SDS011;374;52.568;13.402;2023-03-23T01:06:41;3.80;;;3.43;;
781;SDS011;374;52.568;13.402;2023-03-23T01:09:17;4.93;;;3.77;;
781;SDS011;374;52.568;13.402;2023-03-23T01:11:46;3.60;;;3.17;;
781;SDS011;374;52.568;13.402;2023-03-23T01:14:12;4.67;;;3.40;;
781;SDS011;374;52.568;13.402;2023-03-23T01:16:39;3.47;;;3.13;;
781;SDS011;374;52.568;13.402;2023-03-23T01:19:05;3.60;;;3.30;;
781;SDS011;374;52.568;13.402;2023-03-23T01:21:30;5.47;;;3.53;;
781;SDS011;374;52.568;13.402;2023-03-23T01:23:56;3.93;;;3.03;;
781;SDS011;374;52.568;13.402;2023-03-23T01:26:22;3.60;;;3.17;;
781;SDS011;374;52.568;13.402;2023-03-23T01:28:50;4.17;;;3.40;;
781;SDS011;374;52.568;13.402;2023-03-23T01:31:17;3.70;;;3.33;;
781;SDS011;374;52.568;13.402;2023-03-23T01:33:45;3.80;;;3.47;;
781;SDS011;374;52.568;13.402;2023-03-23T01:36:15;3.53;;;3.23;;
781;SDS011;374;52.568;13.402;2023-03-23T01:38:53;4.20;;;3.80;;
781;SDS011;374;52.568;13.402;2023-03-23T01:41:20;4.33;;;3.80;;
781;SDS011;374;52.568;13.402;2023-03-23T01:43:57;4.50;;;4.10;;
781;SDS011;374;52.568;13.402;2023-03-23T01:46:52;4.27;;;3.73;;
781;SDS011;374;52.568;13.402;2023-03-23T01:49:21;4.50;;;4.07;;
781;SDS011;374;52.568;13.402;2023-03-23T01:51:56;5.10;;;3.80;;
781;SDS011;374;52.568;13.402;2023-03-23T01:54:25;4.67;;;4.10;;
781;SDS011;374;52.568;13.402;2023-03-23T01:56:53;4.13;;;3.73;;
781;SDS011;374;52.568;13.402;2023-03-23T01:59:25;3.97;;;3.10;;
781;SDS011;374;52.568;13.402;2023-03-23T02:01:53;4.13;;;3.73;;
781;SDS011;374;52.568;13.402;2023-03-23T02:04:19;4.10;;;3.40;;
781;SDS011;374;52.568;13.402;2023-03-23T02:06:46;5.63;;;3.50;;
781;SDS011;374;52.568;13.402;2023-03-23T02:09:12;3.53;;;3.23;;
781;SDS011;374;52.568;13.402;2023-03-23T02:11:38;3.50;;;3.20;;
781;SDS011;374;52.568;13.402;2023-03-23T02:14:04;3.67;;;3.30;;
781;SDS011;374;52.568;13.402;2023-03-23T02:16:40;4.70;;;4.20;;
781;SDS011;374;52.568;13.402;2023-03-23T02:19:44;3.43;;;3.03;;
781;SDS011;374;52.568;13.402;2023-03-23T02:22:43;3.80;;;3.40;;
781;SDS011;374;52.568;13.402;2023-03-23T02:33:17;4.80;;;3.80;;
781;SDS011;374;52.568;13.402;2023-03-23T02:36:14;4.90;;;3.83;;
781;SDS011;374;52.568;13.402;2023-03-23T02:41:46;3.70;;;3.40;;
781;SDS011;374;52.568;13.402;2023-03-23T02:44:16;5.40;;;3.70;;
781;SDS011;374;52.568;13.402;2023-03-23T02:46:42;3.13;;;2.93;;
781;SDS011;374;52.568;13.402;2023-03-23T02:49:09;4.20;;;3.90;;
781;SDS011;374;52.568;13.402;2023-03-23T02:51:38;4.40;;;4.00;;
781;SDS011;374;52.568;13.402;2023-03-23T02:54:05;4.30;;;3.90;;
781;SDS011;374;52.568;13.402;2023-03-23T02:56:32;5.17;;;4.27;;
781;SDS011;374;52.568;13.402;2023-03-23T02:59:00;5.47;;;4.03;;
781;SDS011;374;52.568;13.402;2023-03-23T03:04:07;4.07;;;3.77;;
781;SDS011;374;52.568;13.402;2023-03-23T03:11:39;4.20;;;3.80;;
781;SDS011;374;52.568;13.402;2023-03-23T03:14:11;5.70;;;5.20;;
781;SDS011;374;52.568;13.402;2023-03-23T03:17:03;5.67;;;3.90;;
781;SDS011;374;52.568;13.402;2023-03-23T03:19:37;3.60;;;3.30;;
781;SDS011;374;52.568;13.402;2023-03-23T03:22:05;3.73;;;3.33;;
781;SDS011;374;52.568;13.402;2023-03-23T03:24:32;4.87;;;4.47;;
781;SDS011;374;52.568;13.402;2023-03-23T03:27:00;4.47;;;4.07;;
781;SDS011;374;52.568;13.402;2023-03-23T03:29:33;3.70;;;3.40;;
781;SDS011;374;52.568;13.402;2023-03-23T03:32:00;4.20;;;3.80;;
781;SDS011;374;52.568;13.402;2023-03-23T03:34:30;4.37;;;3.97;;
781;SDS011;374;52.568;13.402;2023-03-23T03:36:56;5.00;;;4.30;;
781;SDS011;374;52.568;13.402;2023-03-23T03:39:24;4.67;;;3.60;;
781;SDS011;374;52.568;13.402;2023-03-23T03:41:51;4.17;;;3.67;;
781;SDS011;374;52.568;13.402;2023-03-23T03:44:17;4.13;;;3.77;;
781;SDS011;374;52.568;13.402;2023-03-23T03:46:42;5.50;;;3.60;;
781;SDS011;374;52.568;13.402;2023-03-23T03:49:09;4.13;;;3.73;;
781;SDS011;374;52.568;13.402;2023-03-23T03:51:37;5.40;;;4.57;;
781;SDS011;374;52.568;13.402;2023-03-23T03:54:04;5.20;;;4.00;;
781;SDS011;374;52.568;13.402;2023-03-23T03:56:30;5.57;;;3.97;;
781;SDS011;374;52.568;13.402;2023-03-23T03:58:56;4.73;;;4.20;;
781;SDS011;374;52.568;13.402;2023-03-23T04:01:22;6.97;;;4.00;;
781;SDS011;374;52.568;13.402;2023-03-23T04:03:48;4.33;;;3.83;;
781;SDS011;374;52.568;13.402;2023-03-23T04:06:14;3.80;;;3.50;;
781;SDS011;374;52.568;13.402;2023-03-23T04:08:40;4.00;;;3.70;;
781;SDS011;374;52.568;13.402;2023-03-23T04:11:10;5.07;;;3.87;;
781;SDS011;374;52.568;13.402;2023-03-23T04:13:37;3.70;;;3.40;;
781;SDS011;374;52.568;13.402;2023-03-23T04:16:03;3.70;;;3.40;;
781;SDS011;374;52.568;13.402;2023-03-23T04:18:29;3.87;;;3.40;;
781;SDS011;374;52.568;13.402;2023-03-23T04:20:57;3.63;;;3.30;;
781;SDS011;374;52.568;13.402;2023-03-23T04:23:24;4.03;;;3.53;;
781;SDS011;374;52.568;13.402;2023-03-23T04:25:51;4.37;;;3.67;;
781;SDS011;374;52.568;13.402;2023-03-23T04:28:18;5.67;;;3.80;;
781;SDS011;374;52.568;13.402;2023-03-23T04:30:48;3.77;;;3.47;;
781;SDS011;374;52.568;13.402;2023-03-23T04:33:17;4.63;;;4.23;;
781;SDS011;374;52.568;13.402;2023-03-23T04:35:43;4.17;;;3.57;;
781;SDS011;374;52.568;13.402;2023-03-23T04:38:10;4.77;;;3.60;;
781;SDS011;374;52.568;13.402;2023-03-23T04:40:37;6.43;;;3.93;;
781;SDS011;374;52.568;13.402;2023-03-23T04:43:04;4.23;;;3.50;;
781;SDS011;374;52.568;13.402;2023-03-23T04:45:31;3.90;;;3.60;;
781;SDS011;374;52.568;13.402;2023-03-23T04:48:02;4.00;;;3.70;;
781;SDS011;374;52.568;13.402;2023-03-23T04:50:30;4.17;;;3.87;;
781;SDS011;374;52.568;13.402;2023-03-23T04:52:58;4.00;;;3.40;;
781;SDS011;374;52.568;13.402;2023-03-23T04:55:28;4.00;;;3.60;;
781;SDS011;374;52.568;13.402;2023-03-23T04:58:01;5.10;;;3.77;;
781;SDS011;374;52.568;13.402;2023-03-23T05:00:30;4.00;;;3.70;;
781;SDS011;374;52.568;13.402;2023-03-23T05:02:57;4.77;;;4.10;;
781;SDS011;374;52.568;13.402;2023-03-23T05:05:23;4.40;;;4.00;;
781;SDS011;374;52.568;13.402;2023-03-23T05:07:50;5.07;;;4.20;;
781;SDS011;374;52.568;13.402;2023-03-23T05:10:15;4.00;;;3.70;;
781;SDS011;374;52.568;13.402;2023-03-23T05:12:41;4.77;;;4.40;;
781;SDS011;374;52.568;13.402;2023-03-23T05:15:08;4.80;;;4.40;;
781;SDS011;374;52.568;13.402;2023-03-23T05:17:35;4.73;;;4.10;;
781;SDS011;374;52.568;13.402;2023-03-23T05:20:02;7.17;;;4.20;;
781;SDS011;374;52.568;13.402;2023-03-23T05:22:30;6.73;;;5.00;;
781;SDS011;374;52.568;13.402;2023-03-23T05:24:59;4.53;;;4.23;;
781;SDS011;374;52.568;13.402;2023-03-23T05:27:27;5.63;;;4.70;;
781;SDS011;374;52.568;13.402;2023-03-23T05:29:55;4.73;;;4.40;;
781;SDS011;374;52.568;13.402;2023-03-23T05:32:23;5.60;;;4.50;;
781;SDS011;374;52.568;13.402;2023-03-23T05:34:53;4.80;;;4.40;;
781;SDS011;374;52.568;13.402;2023-03-23T05:37:19;5.57;;;4.53;;
781;SDS011;374;52.568;13.402;2023-03-23T05:39:45;8.47;;;4.67;;
781;SDS011;374;52.568;13.402;2023-03-23T05:42:11;4.60;;;4.20;;
781;SDS011;374;52.568;13.402;2023-03-23T05:44:36;4.73;;;4.23;;
781;SDS011;374;52.568;13.402;2023-03-23T05:47:02;6.10;;;5.20;;
781;SDS011;374;52.568;13.402;2023-03-23T05:49:28;6.67;;;5.23;;
781;SDS011;374;52.568;13.402;2023-03-23T05:51:54;5.07;;;4.57;;
781;SDS011;374;52.568;13.402;2023-03-23T05:54:19;5.90;;;4.30;;
781;SDS011;374;52.568;13.402;2023-03-23T05:56:45;5.47;;;4.80;;
781;SDS011;374;52.568;13.402;2023-03-23T05:59:10;4.23;;;3.77;;
781;SDS011;374;52.568;13.402;2023-03-23T06:01:36;5.13;;;4.43;;
781;SDS011;374;52.568;13.402;2023-03-23T06:04:03;5.00;;;4.50;;
781;SDS011;374;52.568;13.402;2023-03-23T06:06:29;4.27;;;3.87;;
781;SDS011;374;52.568;13.402;2023-03-23T06:08:56;5.70;;;4.13;;
781;SDS011;374;52.568;13.402;2023-03-23T06:11:22;4.70;;;4.17;;
781;SDS011;374;52.568;13.402;2023-03-23T06:13:49;5.67;;;4.03;;
781;SDS011;374;52.568;13.402;2023-03-23T06:16:15;5.43;;;4.40;;
781;SDS011;374;52.568;13.402;2023-03-23T06:18:41;9.23;;;4.20;;
781;SDS011;374;52.568;13.402;2023-03-23T06:21:07;6.10;;;4.33;;
781;SDS011;374;52.568;13.402;2023-03-23T06:23:34;4.70;;;4.23;;
781;SDS011;374;52.568;13.402;2023-03-23T06:26:00;7.70;;;4.30;;
781;SDS011;374;52.568;13.402;2023-03-23T06:28:28;12.00;;;5.10;;
781;SDS011;374;52.568;13.402;2023-03-23T06:30:54;9.33;;;6.10;;
781;SDS011;374;52.568;13.402;2023-03-23T06:33:20;7.23;;;4.30;;
781;SDS011;374;52.568;13.402;2023-03-23T06:35:45;5.77;;;4.37;;
781;SDS011;374;52.568;13.402;2023-03-23T06:38:11;6.53;;;4.77;;
781;SDS011;374;52.568;13.402;2023-03-23T06:40:37;3.90;;;3.13;;
781;SDS011;374;52.568;13.402;2023-03-23T06:43:02;5.40;;;4.93;;
781;SDS011;374;52.568;13.402;2023-03-23T06:45:29;7.00;;;4.10;;
781;SDS011;374;52.568;13.402;2023-03-23T06:47:55;5.60;;;3.90;;
781;SDS011;374;52.568;13.402;2023-03-23T06:50:21;4.03;;;3.47;;
781;SDS011;374;52.568;13.402;2023-03-23T06:52:48;4.30;;;3.90;;
781;SDS011;374;52.568;13.402;2023-03-23T06:55:15;4.63;;;4.00;;
781;SDS011;374;52.568;13.402;2023-03-23T06:57:42;5.20;;;4.70;;
781;SDS011;374;52.568;13.402;2023-03-23T07:00:08;5.70;;;4.13;;
781;SDS011;374;52.568;13.402;2023-03-23T07:02:37;4.60;;;4.20;;
781;SDS011;374;52.568;13.402;2023-03-23T07:05:03;4.17;;;3.77;;
781;SDS011;374;52.568;13.402;2023-03-23T07:07:28;5.63;;;4.00;;
781;SDS011;374;52.568;13.402;2023-03-23T07:09:54;5.27;;;3.57;;
781;SDS011;374;52.568;13.402;2023-03-23T07:12:20;3.83;;;3.50;;
781;SDS011;374;52.568;13.402;2023-03-23T07:14:46;3.93;;;3.53;;
781;SDS011;374;52.568;13.402;2023-03-23T07:17:12;4.13;;;3.80;;
781;SDS011;374;52.568;13.402;2023-03-23T07:19:38;5.30;;;3.90;;
781;SDS011;374;52.568;13.402;2023-03-23T07:22:04;4.13;;;3.80;;
781;SDS011;374;52.568;13.402;2023-03-23T07:24:31;4.50;;;2.90;;
781;SDS011;374;52.568;13.402;2023-03-23T07:26:57;4.70;;;3.43;;
781;SDS011;374;52.568;13.402;2023-03-23T07:29:23;5.60;;;3.50;;
781;SDS011;374;52.568;13.402;2023-03-23T07:31:49;3.40;;;3.10;;
781;SDS011;374;52.568;13.402;2023-03-23T07:34:14;5.90;;;3.10;;
781;SDS011;374;52.568;13.402;2023-03-23T07:36:40;5.00;;;3.20;;
781;SDS011;374;52.568;13.402;2023-03-23T07:39:05;3.67;;;3.30;;
781;SDS011;374;52.568;13.402;2023-03-23T07:41:32;3.63;;;3.33;;
781;SDS011;374;52.568;13.402;2023-03-23T07:43:58;3.73;;;3.43;;
781;SDS011;374;52.568;13.402;2023-03-23T07:46:23;5.80;;;3.10;;
781;SDS011;374;52.568;13.402;2023-03-23T07:48:49;4.07;;;3.23;;
781;SDS011;374;52.568;13.402;2023-03-23T07:51:15;4.63;;;3.97;;
781;SDS011;374;52.568;13.402;2023-03-23T07:53:43;18.37;;;15.60;;
781;SDS011;374;52.568;13.402;2023-03-23T07:56:10;13.13;;;11.73;;
781;SDS011;374;52.568;13.402;2023-03-23T07:58:37;8.10;;;6.77;;
781;SDS011;374;52.568;13.402;2023-03-23T08:01:02;12.20;;;3.90;;
781;SDS011;374;52.568;13.402;2023-03-23T08:03:28;3.40;;;3.10;;
781;SDS011;374;52.568;13.402;2023-03-23T08:05:57;4.73;;;3.67;;
781;SDS011;374;52.568;13.402;2023-03-23T08:08:23;3.90;;;3.60;;
781;SDS011;374;52.568;13.402;2023-03-23T08:10:49;4.30;;;3.70;;
781;SDS011;374;52.568;13.402;2023-03-23T08:13:15;3.97;;;3.47;;
781;SDS011;374;52.568;13.402;2023-03-23T08:15:40;3.37;;;3.07;;
781;SDS011;374;52.568;13.402;2023-03-23T08:18:06;3.50;;;3.20;;
781;SDS011;374;52.568;13.402;2023-03-23T08:20:32;5.07;;;3.90;;
781;SDS011;374;52.568;13.402;2023-03-23T08:22:58;3.43;;;3.20;;
781;SDS011;374;52.568;13.402;2023-03-23T08:25:24;3.80;;;3.50;;
781;SDS011;374;52.568;13.402;2023-03-23T08:27:51;4.30;;;3.90;;
781;SDS011;374;52.568;13.402;2023-03-23T08:30:19;5.33;;;3.50;;
781;SDS011;374;52.568;13.402;2023-03-23T08:32:46;4.90;;;4.40;;
781;SDS011;374;52.568;13.402;2023-03-23T08:35:12;6.23;;;5.00;;
781;SDS011;374;52.568;13.402;2023-03-23T08:37:38;4.10;;;3.70;;
781;SDS011;374;52.568;13.402;2023-03-23T08:40:06;4.47;;;4.07;;
781;SDS011;374;52.568;13.402;2023-03-23T08:42:36;5.90;;;4.87;;
781;SDS011;374;52.568;13.402;2023-03-23T08:45:06;5.50;;;3.87;;
781;SDS011;374;52.568;13.402;2023-03-23T08:47:37;4.10;;;3.80;;
781;SDS011;374;52.568;13.402;2023-03-23T08:50:03;4.67;;;4.00;;
781;SDS011;374;52.568;13.402;2023-03-23T08:52:30;6.20;;;3.80;;
781;SDS011;374;52.568;13.402;2023-03-23T08:54:55;3.83;;;3.50;;
781;SDS011;374;52.568;13.402;2023-03-23T08:57:21;7.13;;;3.43;;
781;SDS011;374;52.568;13.402;2023-03-23T08:59:48;4.27;;;3.67;;
781;SDS011;374;52.568;13.402;2023-03-23T09:02:13;4.50;;;3.80;;
781;SDS011;374;52.568;13.402;2023-03-23T09:04:39;3.33;;;3.03;;
781;SDS011;374;52.568;13.402;2023-03-23T09:07:07;4.00;;;3.70;;
781;SDS011;374;52.568;13.402;2023-03-23T09:09:34;4.63;;;3.73;;
781;SDS011;374;52.568;13.402;2023-03-23T09:12:00;3.20;;;3.00;;
781;SDS011;374;52.568;13.402;2023-03-23T09:14:25;4.80;;;3.27;;
781;SDS011;374;52.568;13.402;2023-03-23T09:16:51;4.87;;;3.50;;
781;SDS011;374;52.568;13.402;2023-03-23T09:19:17;3.87;;;3.50;;
781;SDS011;374;52.568;13.402;2023-03-23T09:21:43;8.57;;;3.60;;
781;SDS011;374;52.568;13.402;2023-03-23T09:24:10;3.30;;;3.00;;
781;SDS011;374;52.568;13.402;2023-03-23T09:26:37;3.77;;;3.47;;
781;SDS011;374;52.568;13.402;2023-03-23T09:29:03;3.50;;;3.20;;
781;SDS011;374;52.568;13.402;2023-03-23T09:31:28;3.83;;;3.50;;
781;SDS011;374;52.568;13.402;2023-03-23T09:33:56;4.37;;;3.07;;
781;SDS011;374;52.568;13.402;2023-03-23T09:36:23;3.63;;;3.27;;
781;SDS011;374;52.568;13.402;2023-03-23T09:38:50;6.87;;;3.27;;
781;SDS011;374;52.568;13.402;2023-03-23T09:44:17;2.80;;;2.60;;
781;SDS011;374;52.568;13.402;2023-03-23T09:49:48;2.73;;;2.53;;
781;SDS011;374;52.568;13.402;2023-03-23T09:52:26;6.57;;;3.40;;
781;SDS011;374;52.568;13.402;2023-03-23T09:55:08;3.20;;;2.90;;
781;SDS011;374;52.568;13.402;2023-03-23T09:57:39;3.30;;;2.60;;
781;SDS011;374;52.568;13.402;2023-03-23T10:00:31;4.23;;;2.70;;
781;SDS011;374;52.568;13.402;2023-03-23T10:03:05;2.60;;;2.40;;
781;SDS011;374;52.568;13.402;2023-03-23T10:05:39;2.87;;;2.63;;
781;SDS011;374;52.568;13.402;2023-03-23T10:08:10;5.00;;;3.10;;
781;SDS011;374;52.568;13.402;2023-03-23T10:10:45;3.60;;;3.30;;
781;SDS011;374;52.568;13.402;2023-03-23T10:13:36;4.13;;;2.63;;
781;SDS011;374;52.568;13.402;2023-03-23T10:16:25;4.47;;;2.60;;
781;SDS011;374;52.568;13.402;2023-03-23T10:18:58;5.67;;;2.70;;
781;SDS011;374;52.568;13.402;2023-03-23T10:21:42;4.93;;;3.50;;
781;SDS011;374;52.568;13.402;2023-03-23T10:24:14;2.77;;;2.57;;
781;SDS011;374;52.568;13.402;2023-03-23T10:30:11;3.23;;;2.60;;
781;SDS011;374;52.568;13.402;2023-03-23T10:32:19;4.83;;;2.93;;
781;SDS011;374;52.568;13.402;2023-03-23T10:35:05;3.07;;;2.77;;
781;SDS011;374;52.568;13.402;2023-03-23T10:37:38;3.23;;;2.67;;
781;SDS011;374;52.568;13.402;2023-03-23T10:40:13;4.10;;;2.80;;
781;SDS011;374;52.568;13.402;2023-03-23T10:42:41;3.57;;;2.30;;
781;SDS011;374;52.568;13.402;2023-03-23T10:47:58;3.30;;;2.73;;
781;SDS011;374;52.568;13.402;2023-03-23T10:50:31;5.43;;;2.50;;
781;SDS011;374;52.568;13.402;2023-03-23T10:53:00;6.60;;;2.47;;
781;SDS011;374;52.568;13.402;2023-03-23T10:55:35;3.30;;;3.00;;
781;SDS011;374;52.568;13.402;2023-03-23T10:58:07;5.63;;;2.50;;
781;SDS011;374;52.568;13.402;2023-03-23T11:00:45;2.50;;;2.30;;
781;SDS011;374;52.568;13.402;2023-03-23T11:05:43;5.10;;;2.50;;
781;SDS011;374;52.568;13.402;2023-03-23T11:08:20;3.17;;;2.87;;
781;SDS011;374;52.568;13.402;2023-03-23T11:13:16;3.17;;;2.77;;
781;SDS011;374;52.568;13.402;2023-03-23T11:15:45;2.40;;;2.20;;
781;SDS011;374;52.568;13.402;2023-03-23T11:18:21;2.47;;;2.27;;
781;SDS011;374;52.568;13.402;2023-03-23T11:20:49;3.73;;;2.70;;
781;SDS011;374;52.568;13.402;2023-03-23T11:23:33;3.57;;;2.30;;
781;SDS011;374;52.568;13.402;2023-03-23T11:26:06;3.00;;;2.70;;
781;SDS011;374;52.568;13.402;2023-03-23T11:28:45;2.40;;;2.20;;
781;SDS011;374;52.568;13.402;2023-03-23T11:31:17;4.97;;;2.60;;
781;SDS011;374;52.568;13.402;2023-03-23T11:36:28;3.67;;;2.80;;
781;SDS011;374;52.568;13.402;2023-03-23T11:38:58;3.87;;;3.27;;
781;SDS011;374;52.568;13.402;2023-03-23T11:41:24;5.20;;;2.40;;
781;SDS011;374;52.568;13.402;2023-03-23T11:43:56;2.80;;;2.50;;
781;SDS011;374;52.568;13.402;2023-03-23T11:49:04;4.50;;;2.83;;
781;SDS011;374;52.568;13.402;2023-03-23T11:51:40;2.97;;;2.17;;
781;SDS011;374;52.568;13.402;2023-03-23T11:54:15;2.83;;;2.17;;
781;SDS011;374;52.568;13.402;2023-03-23T11:56:43;4.20;;;2.50;;
781;SDS011;374;52.568;13.402;2023-03-23T11:59:11;3.23;;;2.93;;
781;SDS011;374;52.568;13.402;2023-03-23T12:04:56;2.80;;;2.50;;
781;SDS011;374;52.568;13.402;2023-03-23T12:07:26;4.30;;;3.87;;
781;SDS011;374;52.568;13.402;2023-03-23T12:15:25;2.53;;;2.33;;
781;SDS011;374;52.568;13.402;2023-03-23T12:18:09;3.07;;;2.40;;
781;SDS011;374;52.568;13.402;2023-03-23T12:23:25;3.70;;;2.70;;
781;SDS011;374;52.568;13.402;2023-03-23T12:28:46;2.60;;;2.40;;
781;SDS011;374;52.568;13.402;2023-03-23T12:31:29;3.53;;;2.30;;
781;SDS011;374;52.568;13.402;2023-03-23T12:34:22;4.03;;;2.50;;
781;SDS011;374;52.568;13.402;2023-03-23T12:39:48;3.33;;;2.37;;
781;SDS011;374;52.568;13.402;2023-03-23T12:42:38;3.40;;;2.50;;
781;SDS011;374;52.568;13.402;2023-03-23T12:48:04;2.73;;;1.97;;
781;SDS011;374;52.568;13.402;2023-03-23T12:50:44;2.87;;;2.60;;
781;SDS011;374;52.568;13.402;2023-03-23T12:53:33;3.07;;;2.17;;
781;SDS011;374;52.568;13.402;2023-03-23T12:56:08;3.27;;;2.70;;
781;SDS011;374;52.568;13.402;2023-03-23T12:58:44;5.00;;;2.07;;
781;SDS011;374;52.568;13.402;2023-03-23T13:01:17;4.03;;;2.77;;
781;SDS011;374;52.568;13.402;2023-03-23T13:09:11;3.53;;;2.40;;
781;SDS011;374;52.568;13.402;2023-03-23T13:12:01;3.53;;;2.70;;
781;SDS011;374;52.568;13.402;2023-03-23T13:14:33;3.30;;;2.20;;
781;SDS011;374;52.568;13.402;2023-03-23T13:17:30;4.10;;;3.00;;
781;SDS011;374;52.568;13.402;2023-03-23T13:23:19;3.93;;;2.80;;
781;SDS011;374;52.568;13.402;2023-03-23T13:31:19;5.63;;;2.40;;
781;SDS011;374;52.568;13.402;2023-03-23T13:33:51;2.87;;;2.60;;
781;SDS011;374;52.568;13.402;2023-03-23T13:36:26;2.77;;;2.47;;
781;SDS011;374;52.568;13.402;2023-03-23T13:39:04;3.63;;;2.97;;
781;SDS011;374;52.568;13.402;2023-03-23T13:41:45;3.10;;;2.80;;
781;SDS011;374;52.568;13.402;2023-03-23T13:44:17;2.93;;;2.20;;
781;SDS011;374;52.568;13.402;2023-03-23T13:46:53;3.07;;;2.73;;
781;SDS011;374;52.568;13.402;2023-03-23T13:49:21;3.50;;;2.77;;
781;SDS011;374;52.568;13.402;2023-03-23T14:01:51;5.37;;;2.50;;
781;SDS011;374;52.568;13.402;2023-03-23T14:04:19;3.00;;;2.57;;
781;SDS011;374;52.568;13.402;2023-03-23T14:06:48;3.40;;;2.80;;
781;SDS011;374;52.568;13.402;2023-03-23T14:11:57;2.73;;;2.50;;
781;SDS011;374;52.568;13.402;2023-03-23T14:14:50;2.63;;;2.03;;
781;SDS011;374;52.568;13.402;2023-03-23T14:17:28;3.33;;;2.67;;
781;SDS011;374;52.568;13.402;2023-03-23T14:19:55;4.77;;;4.10;;
781;SDS011;374;52.568;13.402;2023-03-23T14:22:26;7.17;;;3.33;;
781;SDS011;374;52.568;13.402;2023-03-23T14:25:01;5.80;;;3.30;;
781;SDS011;374;52.568;13.402;2023-03-23T14:27:35;3.57;;;2.60;;
781;SDS011;374;52.568;13.402;2023-03-23T14:30:08;5.33;;;4.10;;
781;SDS011;374;52.568;13.402;2023-03-23T14:32:42;4.57;;;3.60;;
781;SDS011;374;52.568;13.402;2023-03-23T14:35:30;3.30;;;2.67;;
781;SDS011;374;52.568;13.402;2023-03-23T14:37:58;3.90;;;2.87;;
781;SDS011;374;52.568;13.402;2023-03-23T14:40:28;2.70;;;2.20;;
781;SDS011;374;52.568;13.402;2023-03-23T14:43:04;2.83;;;2.40;;
781;SDS011;374;52.568;13.402;2023-03-23T14:45:39;4.40;;;3.33;;
781;SDS011;374;52.568;13.402;2023-03-23T14:48:05;4.27;;;3.30;;
781;SDS011;374;52.568;13.402;2023-03-23T14:50:42;4.77;;;2.60;;
781;SDS011;374;52.568;13.402;2023-03-23T14:56:02;3.57;;;2.80;;
781;SDS011;374;52.568;13.402;2023-03-23T14:58:35;4.60;;;3.27;;
781;SDS011;374;52.568;13.402;2023-03-23T15:01:03;2.60;;;2.40;;
781;SDS011;374;52.568;13.402;2023-03-23T15:03:40;4.23;;;2.63;;
781;SDS011;374;52.568;13.402;2023-03-23T15:06:16;6.87;;;2.60;;
781;SDS011;374;52.568;13.402;2023-03-23T15:08:44;2.90;;;2.37;;
781;SDS011;374;52.568;13.402;2023-03-23T15:13:44;5.63;;;2.83;;
781;SDS011;374;52.568;13.402;2023-03-23T15:16:14;4.17;;;2.70;;
781;SDS011;374;52.568;13.402;2023-03-23T15:19:04;2.80;;;2.60;;
781;SDS011;374;52.568;13.402;2023-03-23T15:21:36;3.50;;;2.57;;
781;SDS011;374;52.568;13.402;2023-03-23T15:24:19;4.60;;;2.00;;
781;SDS011;374;52.568;13.402;2023-03-23T15:26:48;3.33;;;2.90;;
781;SDS011;374;52.568;13.402;2023-03-23T15:29:17;3.90;;;2.37;;
781;SDS011;374;52.568;13.402;2023-03-23T15:31:46;3.73;;;3.23;;
781;SDS011;374;52.568;13.402;2023-03-23T15:34:25;2.83;;;2.63;;
781;SDS011;374;52.568;13.402;2023-03-23T15:37:04;2.73;;;2.53;;
781;SDS011;374;52.568;13.402;2023-03-23T15:39:44;6.90;;;3.57;;
781;SDS011;374;52.568;13.402;2023-03-23T15:45:34;4.43;;;3.07;;
781;SDS011;374;52.568;13.402;2023-03-23T15:47:51;4.47;;;3.50;;
781;SDS011;374;52.568;13.402;2023-03-23T15:52:57;3.63;;;3.33;;
781;SDS011;374;52.568;13.402;2023-03-23T15:55:25;4.87;;;4.07;;
781;SDS011;374;52.568;13.402;2023-03-23T15:58:00;5.13;;;4.40;;
781;SDS011;374;52.568;13.402;2023-03-23T16:00:29;5.10;;;3.50;;
781;SDS011;374;52.568;13.402;2023-03-23T16:02:56;2.93;;;2.60;;
781;SDS011;374;52.568;13.402;2023-03-23T16:05:26;3.10;;;2.63;;
781;SDS011;374;52.568;13.402;2023-03-23T16:07:52;4.97;;;2.80;;
781;SDS011;374;52.568;13.402;2023-03-23T16:10:19;3.00;;;2.70;;
781;SDS011;374;52.568;13.402;2023-03-23T16:12:46;4.63;;;3.33;;
781;SDS011;374;52.568;13.402;2023-03-23T16:15:12;2.77;;;2.57;;
781;SDS011;374;52.568;13.402;2023-03-23T16:17:38;4.37;;;2.67;;
781;SDS011;374;52.568;13.402;2023-03-23T16:20:09;4.20;;;2.77;;
781;SDS011;374;52.568;13.402;2023-03-23T16:22:39;6.47;;;4.40;;
781;SDS011;374;52.568;13.402;2023-03-23T16:25:05;3.40;;;2.90;;
781;SDS011;374;52.568;13.402;2023-03-23T16:27:32;4.17;;;3.77;;
781;SDS011;374;52.568;13.402;2023-03-23T16:29:57;5.90;;;4.70;;
781;SDS011;374;52.568;13.402;2023-03-23T16:32:24;5.43;;;4.77;;
781;SDS011;374;52.568;13.402;2023-03-23T16:34:50;6.07;;;3.03;;
781;SDS011;374;52.568;13.402;2023-03-23T16:37:16;5.43;;;4.17;;
781;SDS011;374;52.568;13.402;2023-03-23T16:39:42;4.30;;;3.77;;
781;SDS011;374;52.568;13.402;2023-03-23T16:42:08;4.73;;;3.10;;
781;SDS011;374;52.568;13.402;2023-03-23T16:44:33;5.10;;;3.50;;
781;SDS011;374;52.568;13.402;2023-03-23T16:46:59;4.13;;;2.87;;
781;SDS011;374;52.568;13.402;2023-03-23T16:49:24;5.20;;;2.50;;
781;SDS011;374;52.568;13.402;2023-03-23T16:51:50;3.10;;;2.70;;
781;SDS011;374;52.568;13.402;2023-03-23T16:54:18;4.40;;;2.87;;
781;SDS011;374;52.568;13.402;2023-03-23T16:56:44;5.83;;;3.80;;
781;SDS011;374;52.568;13.402;2023-03-23T16:59:11;5.43;;;4.90;;
781;SDS011;374;52.568;13.402;2023-03-23T17:01:37;3.93;;;2.73;;
781;SDS011;374;52.568;13.402;2023-03-23T17:04:05;3.80;;;2.67;;
781;SDS011;374;52.568;13.402;2023-03-23T17:06:31;3.70;;;2.60;;
781;SDS011;374;52.568;13.402;2023-03-23T17:08:57;2.87;;;2.60;;
781;SDS011;374;52.568;13.402;2023-03-23T17:11:23;6.83;;;3.40;;
781;SDS011;374;52.568;13.402;2023-03-23T17:13:49;4.97;;;3.80;;
781;SDS011;374;52.568;13.402;2023-03-23T17:16:14;4.40;;;2.90;;
781;SDS011;374;52.568;13.402;2023-03-23T17:18:40;3.87;;;3.47;;
781;SDS011;374;52.568;13.402;2023-03-23T17:21:05;5.93;;;3.53;;
781;SDS011;374;52.568;13.402;2023-03-23T17:23:34;4.87;;;4.37;;
781;SDS011;374;52.568;13.402;2023-03-23T17:26:00;3.37;;;3.00;;